createdAt,value
2023-03-16T00:03:23.038Z,8.02
2023-03-16T00:06:56.052Z,6.55
2023-03-16T00:10:28.632Z,8.30
2023-03-16T00:14:04.293Z,10.57
2023-03-16T00:17:37.073Z,7.68
2023-03-16T00:21:09.254Z,4.88
2023-03-16T00:24:43.431Z,2.83
2023-03-16T00:28:15.373Z,11.00
2023-03-16T00:31:47.553Z,9.05
2023-03-16T00:35:19.855Z,9.80
2023-03-16T00:38:53.023Z,6.70
2023-03-16T00:42:27.804Z,9.80
2023-03-16T00:46:06.838Z,5.30
2023-03-16T00:49:40.136Z,4.85
2023-03-16T00:53:12.444Z,6.93
2023-03-16T00:56:44.369Z,5.03
2023-03-16T01:00:17.288Z,2.70
2023-03-16T01:03:49.179Z,5.47
2023-03-16T01:07:22.184Z,5.85
2023-03-16T01:10:57.681Z,5.97
2023-03-16T01:14:29.670Z,5.90
2023-03-16T01:18:02.156Z,3.83
2023-03-16T01:21:34.490Z,7.13
2023-03-16T01:25:06.824Z,10.20
2023-03-16T01:28:39.143Z,5.75
2023-03-16T01:32:12.172Z,8.00
2023-03-16T01:35:55.345Z,7.20
2023-03-16T01:39:27.255Z,10.13
2023-03-16T01:43:02.804Z,6.07
2023-03-16T01:46:34.736Z,8.37
2023-03-16T01:50:07.581Z,6.65
2023-03-16T01:53:44.777Z,11.25
2023-03-16T01:57:21.077Z,7.37
2023-03-16T02:00:53.162Z,4.68
2023-03-16T02:04:42.426Z,3.38
2023-03-16T02:08:14.582Z,3.28
2023-03-16T02:11:47.544Z,6.50
2023-03-16T02:15:19.693Z,4.50
2023-03-16T02:18:52.280Z,3.35
2023-03-16T02:22:25.096Z,5.33
2023-03-16T02:26:09.592Z,7.22
2023-03-16T02:30:05.099Z,5.90
2023-03-16T02:33:37.634Z,3.23
2023-03-16T02:37:10.044Z,3.00
2023-03-16T02:40:44.098Z,4.93
2023-03-16T02:44:24.765Z,4.45
2023-03-16T02:47:58.906Z,3.63
2023-03-16T02:51:30.864Z,6.05
2023-03-16T02:55:05.384Z,6.28
2023-03-16T02:58:37.785Z,3.90
2023-03-16T03:02:11.275Z,7.70
2023-03-16T03:05:43.327Z,12.30
2023-03-16T03:09:16.561Z,9.67
2023-03-16T03:12:49.552Z,5.20
2023-03-16T03:16:22.145Z,6.82
2023-03-16T03:19:54.755Z,7.85
2023-03-16T03:23:26.836Z,4.77
2023-03-16T03:27:01.416Z,3.40
2023-03-16T03:30:33.846Z,5.70
2023-03-16T03:34:06.808Z,5.70
2023-03-16T03:37:43.082Z,6.40
2023-03-16T03:41:15.277Z,6.65
2023-03-16T03:44:47.333Z,7.00
2023-03-16T03:48:19.048Z,8.40
2023-03-16T03:51:51.434Z,2.78
2023-03-16T03:55:23.135Z,2.40
2023-03-16T03:58:55.700Z,5.37
2023-03-16T04:02:27.685Z,3.60
2023-03-16T04:06:00.075Z,5.43
2023-03-16T04:09:34.979Z,5.03
2023-03-16T04:13:07.128Z,6.88
2023-03-16T04:16:39.543Z,4.00
2023-03-16T04:20:16.083Z,6.70
2023-03-16T04:23:49.825Z,2.42
2023-03-16T04:27:21.553Z,4.43
2023-03-16T04:30:56.991Z,3.03
2023-03-16T04:34:28.897Z,3.10
2023-03-16T04:38:02.500Z,1.48
2023-03-16T04:41:34.561Z,7.10
2023-03-16T04:45:07.014Z,4.30
2023-03-16T04:48:41.368Z,2.88
2023-03-16T04:52:13.818Z,3.33
2023-03-16T04:55:46.987Z,5.97
2023-03-16T04:59:19.269Z,3.38
2023-03-16T05:02:54.518Z,2.65
2023-03-16T05:06:26.568Z,9.93
2023-03-16T05:09:58.658Z,2.87
2023-03-16T05:13:30.985Z,5.28
2023-03-16T05:17:04.289Z,13.70
2023-03-16T05:20:35.983Z,6.07
2023-03-16T05:24:09.017Z,2.75
2023-03-16T05:27:46.131Z,7.65
2023-03-16T05:31:19.258Z,5.57
2023-03-16T05:34:54.802Z,4.55
2023-03-16T05:38:31.391Z,11.85
2023-03-16T05:42:06.092Z,4.30
2023-03-16T05:45:38.406Z,4.27
2023-03-16T05:49:13.044Z,5.00
2023-03-16T05:52:45.632Z,4.57
2023-03-16T05:56:18.306Z,4.73
2023-03-16T05:59:50.624Z,9.10
2023-03-16T06:03:23.020Z,15.60
2023-03-16T06:06:55.277Z,11.57
2023-03-16T06:10:30.157Z,9.75
2023-03-16T06:14:02.533Z,8.68
2023-03-16T06:17:35.279Z,16.85
2023-03-16T06:21:07.368Z,11.53
2023-03-16T06:24:39.343Z,8.45
2023-03-16T06:28:11.411Z,9.13
2023-03-16T06:31:43.349Z,6.37
2023-03-16T06:35:15.434Z,6.68
2023-03-16T06:38:47.425Z,4.45
2023-03-16T06:42:19.500Z,8.27
2023-03-16T06:45:51.389Z,7.90
2023-03-16T06:49:23.516Z,3.53
2023-03-16T06:52:55.438Z,5.72
2023-03-16T06:56:28.212Z,6.60
2023-03-16T07:00:00.856Z,4.68
2023-03-16T07:03:33.742Z,8.10
2023-03-16T07:07:06.190Z,6.07
2023-03-16T07:10:40.182Z,5.88
2023-03-16T07:14:12.344Z,11.23
2023-03-16T07:17:45.116Z,6.83
2023-03-16T07:21:17.670Z,6.05
2023-03-16T07:24:57.424Z,5.25
2023-03-16T07:28:30.027Z,4.57
2023-03-16T07:32:04.128Z,4.90
2023-03-16T07:35:38.295Z,3.60
2023-03-16T07:39:14.827Z,6.55
2023-03-16T07:42:47.537Z,5.87
2023-03-16T07:46:21.277Z,5.28
2023-03-16T07:49:55.542Z,7.00
2023-03-16T07:53:28.884Z,6.50
2023-03-16T07:57:03.394Z,9.95
2023-03-16T08:00:35.383Z,8.32
2023-03-16T08:04:07.969Z,7.60
2023-03-16T08:07:41.287Z,2.73
2023-03-16T08:11:14.536Z,6.97
2023-03-16T08:14:47.567Z,7.43
2023-03-16T08:18:24.372Z,4.07
2023-03-16T08:22:01.488Z,6.53
2023-03-16T08:25:39.083Z,8.10
2023-03-16T08:29:13.894Z,8.27
2023-03-16T08:32:47.053Z,5.90
2023-03-16T08:36:29.131Z,6.88
2023-03-16T08:40:06.560Z,6.40
2023-03-16T08:43:39.720Z,6.40
2023-03-16T08:47:12.163Z,5.15
2023-03-16T08:50:45.325Z,5.03
2023-03-16T08:54:17.871Z,5.40
2023-03-16T08:57:54.466Z,7.78
2023-03-16T09:01:27.599Z,7.35
2023-03-16T09:05:02.454Z,3.70
2023-03-16T09:08:36.824Z,8.05
2023-03-16T09:12:10.185Z,9.15
2023-03-16T09:15:53.287Z,10.27
2023-03-16T09:19:26.386Z,5.00
2023-03-16T09:23:00.359Z,5.97
2023-03-16T09:26:37.348Z,9.63
2023-03-16T09:30:10.584Z,6.83
2023-03-16T09:33:43.113Z,3.67
2023-03-16T09:37:16.382Z,5.95
2023-03-16T09:41:00.703Z,5.23
2023-03-16T09:45:04.546Z,4.20
2023-03-16T09:48:41.146Z,5.05
2023-03-16T09:52:43.975Z,11.23
2023-03-16T09:56:33.847Z,7.80
2023-03-16T10:00:22.282Z,9.48
2023-03-16T10:04:15.579Z,8.40
2023-03-16T10:08:14.035Z,5.53
2023-03-16T10:11:53.325Z,4.38
2023-03-16T10:15:29.765Z,7.55
2023-03-16T10:19:14.380Z,7.10
2023-03-16T10:22:48.863Z,8.45
2023-03-16T10:26:29.855Z,5.95
2023-03-16T10:30:04.845Z,4.38
2023-03-16T10:33:39.648Z,8.07
2023-03-16T10:37:15.458Z,8.40
2023-03-16T10:40:48.224Z,5.07
2023-03-16T10:44:28.613Z,7.10
2023-03-16T10:48:17.554Z,6.20
2023-03-16T10:51:50.743Z,5.80
2023-03-16T10:55:29.174Z,5.07
2023-03-16T10:59:02.503Z,4.97
2023-03-16T11:02:36.503Z,1.85
2023-03-16T11:06:23.166Z,3.97
2023-03-16T11:09:58.728Z,3.93
2023-03-16T11:13:36.236Z,3.10
2023-03-16T11:17:18.107Z,3.17
2023-03-16T11:20:50.952Z,3.67
2023-03-16T11:24:42.702Z,5.35
2023-03-16T11:28:43.850Z,4.68
2023-03-16T11:32:25.968Z,7.03
2023-03-16T11:36:18.055Z,2.90
2023-03-16T11:40:30.884Z,2.50
2023-03-16T11:44:20.047Z,3.17
2023-03-16T11:48:00.906Z,6.33
2023-03-16T11:51:48.816Z,5.40
2023-03-16T11:55:36.404Z,3.30
2023-03-16T11:59:26.288Z,4.87
2023-03-16T12:03:46.804Z,6.68
2023-03-16T12:07:31.724Z,4.22
2023-03-16T12:11:13.208Z,4.47
2023-03-16T12:15:14.583Z,7.07
2023-03-16T12:18:54.135Z,6.55
2023-03-16T12:22:32.956Z,2.97
2023-03-16T12:26:06.848Z,9.47
2023-03-16T12:29:44.447Z,5.07
2023-03-16T12:33:35.058Z,2.25
2023-03-16T12:37:19.660Z,2.37
2023-03-16T12:40:53.274Z,3.30
2023-03-16T12:44:25.250Z,3.67
2023-03-16T12:48:25.448Z,4.73
2023-03-16T12:52:05.685Z,3.43
2023-03-16T12:55:38.049Z,5.70
2023-03-16T12:59:18.648Z,5.82
2023-03-16T13:02:57.424Z,4.73
2023-03-16T13:06:36.537Z,3.15
2023-03-16T13:10:14.865Z,3.38
2023-03-16T13:13:50.076Z,4.13
2023-03-16T13:17:35.836Z,4.27
2023-03-16T13:21:17.856Z,3.15
2023-03-16T13:24:54.600Z,3.25
2023-03-16T13:28:37.744Z,6.57
2023-03-16T13:32:17.817Z,2.97
2023-03-16T13:35:53.048Z,6.35
2023-03-16T13:39:28.698Z,4.68
2023-03-16T13:43:03.493Z,4.37
2023-03-16T13:46:35.751Z,5.13
2023-03-16T13:50:16.580Z,5.55
2023-03-16T13:53:49.562Z,3.63
2023-03-16T13:57:25.715Z,5.53
2023-03-16T14:00:59.916Z,3.10
2023-03-16T14:04:33.954Z,4.28
2023-03-16T14:08:15.998Z,4.27
2023-03-16T14:11:48.957Z,4.28
2023-03-16T14:15:25.579Z,8.48
2023-03-16T14:19:19.678Z,5.87
2023-03-16T14:22:53.674Z,4.95
2023-03-16T14:26:26.245Z,7.38
2023-03-16T14:30:02.159Z,3.40
2023-03-16T14:33:41.440Z,4.70
2023-03-16T14:37:17.605Z,4.75
2023-03-16T14:40:54.772Z,7.30
2023-03-16T14:44:34.867Z,5.13
2023-03-16T14:48:17.511Z,5.40
2023-03-16T14:51:52.730Z,5.15
2023-03-16T14:55:25.947Z,8.98
2023-03-16T14:58:57.840Z,7.00
2023-03-16T15:02:31.923Z,5.27
2023-03-16T15:06:03.977Z,5.82
2023-03-16T15:09:40.231Z,2.53
2023-03-16T15:13:34.531Z,5.50
2023-03-16T15:17:09.425Z,5.70
2023-03-16T15:20:43.739Z,3.22
2023-03-16T15:24:16.164Z,4.38
2023-03-16T15:27:49.337Z,4.43
2023-03-16T15:31:21.695Z,7.53
2023-03-16T15:34:53.896Z,6.43
2023-03-16T15:38:29.564Z,3.72
2023-03-16T15:42:01.796Z,4.03
2023-03-16T15:45:33.574Z,6.80
2023-03-16T15:49:05.776Z,7.30
2023-03-16T15:52:39.589Z,6.70
2023-03-16T15:56:15.148Z,6.87
2023-03-16T15:59:47.562Z,5.30
2023-03-16T16:03:19.913Z,5.70
2023-03-16T16:06:55.814Z,5.38
2023-03-16T16:10:29.114Z,5.67
2023-03-16T16:14:01.927Z,4.00
2023-03-16T16:17:50.482Z,5.63
2023-03-16T16:21:32.639Z,7.73
2023-03-16T16:25:05.383Z,7.27
2023-03-16T16:28:37.340Z,11.60
2023-03-16T16:32:23.471Z,10.90
2023-03-16T16:35:58.692Z,15.53
2023-03-16T16:39:30.989Z,21.60
2023-03-16T16:43:05.343Z,19.60
2023-03-16T16:46:42.145Z,23.55
2023-03-16T16:50:23.484Z,21.23
2023-03-16T16:53:58.437Z,18.17
2023-03-16T16:57:31.736Z,14.98
2023-03-16T17:01:04.739Z,24.97
2023-03-16T17:04:36.851Z,24.30
2023-03-16T17:08:12.836Z,38.13
2023-03-16T17:11:45.866Z,32.95
2023-03-16T17:15:29.994Z,23.60
2023-03-16T17:19:03.662Z,17.17
2023-03-16T17:22:36.350Z,18.83
2023-03-16T17:26:18.000Z,20.33
2023-03-16T17:29:50.163Z,20.83
2023-03-16T17:33:26.130Z,23.08
2023-03-16T17:36:58.188Z,19.40
2023-03-16T17:40:30.534Z,77.90
2023-03-16T17:44:11.977Z,96.30
2023-03-16T17:47:45.111Z,58.72
2023-03-16T17:51:18.026Z,45.70
2023-03-16T17:54:51.186Z,37.55
2023-03-16T17:58:29.767Z,24.52
2023-03-16T18:02:02.080Z,22.20
2023-03-16T18:05:35.456Z,22.02
2023-03-16T18:09:08.722Z,20.88
2023-03-16T18:12:40.486Z,17.63
2023-03-16T18:16:23.138Z,19.67
2023-03-16T18:19:56.560Z,9.70
2023-03-16T18:23:32.078Z,12.70
2023-03-16T18:27:05.068Z,13.87
2023-03-16T18:30:39.536Z,25.83
2023-03-16T18:34:21.123Z,17.88
2023-03-16T18:37:55.123Z,18.03
2023-03-16T18:41:33.862Z,19.80
2023-03-16T18:45:07.113Z,32.25
2023-03-16T18:48:39.226Z,30.67
2023-03-16T18:52:22.503Z,40.92
2023-03-16T18:55:57.218Z,67.70
2023-03-16T18:59:30.562Z,47.17
2023-03-16T19:03:03.519Z,40.27
2023-03-16T19:06:37.279Z,24.15
2023-03-16T19:10:32.488Z,14.70
2023-03-16T19:14:16.765Z,23.07
2023-03-16T19:17:49.634Z,26.50
2023-03-16T19:21:25.024Z,46.03
2023-03-16T19:24:57.595Z,20.47
2023-03-16T19:28:36.620Z,18.33
2023-03-16T19:32:16.697Z,20.42
2023-03-16T19:35:52.126Z,31.92
2023-03-16T19:39:26.138Z,32.30
2023-03-16T19:42:58.240Z,25.25
2023-03-16T19:46:30.681Z,24.17
2023-03-16T19:50:06.395Z,24.30
2023-03-16T19:53:40.162Z,27.60
2023-03-16T19:57:15.327Z,32.60
2023-03-16T20:00:48.044Z,34.13
2023-03-16T20:04:25.030Z,28.05
2023-03-16T20:07:59.132Z,27.02
2023-03-16T20:11:32.743Z,23.48
2023-03-16T20:15:06.158Z,28.53
2023-03-16T20:18:38.509Z,30.48
2023-03-16T20:22:18.727Z,30.65
2023-03-16T20:25:55.842Z,33.67
2023-03-16T20:29:31.233Z,30.05
2023-03-16T20:33:04.149Z,27.35
2023-03-16T20:36:39.285Z,39.03
2023-03-16T20:40:11.513Z,44.33
2023-03-16T20:43:47.272Z,40.90
2023-03-16T20:47:22.945Z,35.60
2023-03-16T20:50:58.143Z,44.43
2023-03-16T20:54:32.116Z,28.73
2023-03-16T20:58:16.599Z,28.92
2023-03-16T21:01:49.961Z,28.37
2023-03-16T21:05:23.957Z,22.73
2023-03-16T21:09:03.239Z,23.23
2023-03-16T21:12:39.487Z,20.83
2023-03-16T21:16:11.509Z,24.80
2023-03-16T21:19:44.263Z,20.92
2023-03-16T21:23:21.366Z,25.38
2023-03-16T21:26:53.960Z,23.73
2023-03-16T21:30:33.015Z,21.02
2023-03-16T21:34:05.760Z,25.20
2023-03-16T21:37:37.771Z,16.20
2023-03-16T21:41:10.448Z,23.85
2023-03-16T21:44:42.982Z,23.13
2023-03-16T21:48:24.898Z,22.57
2023-03-16T21:52:01.289Z,20.58
2023-03-16T21:55:34.094Z,22.95
2023-03-16T21:59:06.782Z,26.90
2023-03-16T22:02:39.230Z,22.90
2023-03-16T22:06:13.578Z,19.75
2023-03-16T22:09:46.770Z,17.25
2023-03-16T22:13:19.265Z,15.43
2023-03-16T22:16:51.868Z,17.52
2023-03-16T22:20:27.322Z,14.52
2023-03-16T22:24:00.134Z,16.77
2023-03-16T22:27:32.312Z,19.77
2023-03-16T22:31:05.264Z,20.17
2023-03-16T22:34:56.286Z,17.50
2023-03-16T22:38:29.911Z,20.10
2023-03-16T22:42:02.473Z,19.30
2023-03-16T22:45:35.019Z,15.38
2023-03-16T22:49:20.137Z,17.80
2023-03-16T22:52:57.385Z,16.80
2023-03-16T22:56:30.733Z,15.93
2023-03-16T23:00:11.181Z,15.73
2023-03-16T23:03:44.585Z,13.32
2023-03-16T23:07:17.160Z,20.13
2023-03-16T23:10:51.814Z,15.68
2023-03-16T23:14:27.669Z,12.53
2023-03-16T23:17:59.631Z,12.15
2023-03-16T23:21:31.898Z,12.88
2023-03-16T23:25:03.824Z,15.23
2023-03-16T23:28:36.373Z,13.63
2023-03-16T23:32:11.245Z,12.80
2023-03-16T23:35:46.433Z,10.87
2023-03-16T23:39:18.702Z,12.45
2023-03-16T23:42:53.444Z,12.65
2023-03-16T23:46:26.413Z,13.30
2023-03-16T23:49:59.087Z,12.00
2023-03-16T23:53:31.158Z,11.45
2023-03-16T23:57:03.538Z,12.00
